createdAt,value
2019-01-14T00:02:03.023Z,97.50
2019-01-14T00:04:33.236Z,97.90
2019-01-14T00:07:03.486Z,97.80
2019-01-14T00:09:33.795Z,97.90
2019-01-14T00:12:04.592Z,97.90
2019-01-14T00:14:34.872Z,97.90
2019-01-14T00:17:05.130Z,97.90
2019-01-14T00:19:35.713Z,98.00
2019-01-14T00:22:07.590Z,97.40
2019-01-14T00:24:38.130Z,97.30
2019-01-14T00:27:08.390Z,97.50
2019-01-14T00:29:38.675Z,97.40
2019-01-14T00:32:08.956Z,97.70
2019-01-14T00:34:39.349Z,98.00
2019-01-14T00:37:09.599Z,98.00
2019-01-14T00:39:39.856Z,98.00
2019-01-14T00:42:10.572Z,98.50
2019-01-14T00:44:40.827Z,98.30
2019-01-14T00:47:11.106Z,98.50
2019-01-14T00:49:41.415Z,98.60
2019-01-14T00:52:11.739Z,98.60
2019-01-14T00:54:41.983Z,98.60
2019-01-14T00:57:12.576Z,98.60
2019-01-14T00:59:42.841Z,98.70
2019-01-14T01:02:14.240Z,98.50
2019-01-14T01:04:44.567Z,98.50
2019-01-14T01:07:14.830Z,98.50
2019-01-14T01:09:45.060Z,98.80
2019-01-14T01:12:15.524Z,99.00
2019-01-14T01:14:45.849Z,99.10
2019-01-14T01:17:16.097Z,98.40
2019-01-14T01:19:46.397Z,98.10
2019-01-14T01:22:16.638Z,98.10
2019-01-14T01:24:47.160Z,98.40
2019-01-14T01:27:17.550Z,98.40
2019-01-14T01:29:47.758Z,98.50
2019-01-14T01:32:18.065Z,98.20
2019-01-14T01:34:48.272Z,98.20
2019-01-14T01:37:18.593Z,98.10
2019-01-14T01:39:48.835Z,97.90
2019-01-14T01:42:19.108Z,97.90
2019-01-14T01:44:49.353Z,98.20
2019-01-14T01:47:19.866Z,98.30
2019-01-14T01:49:50.575Z,98.40
2019-01-14T01:52:21.188Z,98.40
2019-01-14T01:54:51.712Z,98.50
2019-01-14T01:57:21.991Z,98.40
2019-01-14T01:59:52.383Z,98.50
2019-01-14T02:02:22.956Z,98.50
2019-01-14T02:04:53.187Z,98.40
2019-01-14T02:07:24.007Z,98.40
2019-01-14T02:09:54.297Z,98.10
2019-01-14T02:12:24.611Z,98.10
2019-01-14T02:14:55.119Z,98.00
2019-01-14T02:17:25.428Z,97.90
2019-01-14T02:19:55.704Z,97.50
2019-01-14T02:22:25.978Z,97.70
2019-01-14T02:24:56.195Z,97.30
2019-01-14T02:27:26.492Z,97.50
2019-01-14T02:29:56.816Z,97.10
2019-01-14T02:32:27.287Z,96.90
2019-01-14T02:34:57.537Z,96.90
2019-01-14T02:37:27.798Z,97.00
2019-01-14T02:39:58.151Z,97.00
2019-01-14T02:42:28.433Z,96.60
2019-01-14T02:44:58.673Z,96.50
2019-01-14T02:47:29.004Z,96.90
2019-01-14T02:49:59.580Z,96.80
2019-01-14T02:52:29.868Z,96.70
2019-01-14T02:55:00.451Z,96.60
2019-01-14T02:57:30.983Z,96.30
2019-01-14T03:00:01.220Z,96.60
2019-01-14T03:02:31.570Z,96.60
2019-01-14T03:05:02.091Z,97.00
2019-01-14T03:07:32.366Z,97.00
2019-01-14T03:10:03.271Z,97.00
2019-01-14T03:12:33.527Z,97.20
2019-01-14T03:15:03.834Z,97.20
2019-01-14T03:17:34.605Z,97.40
2019-01-14T03:20:06.994Z,97.60
2019-01-14T03:22:37.521Z,97.80
2019-01-14T03:25:09.204Z,97.70
2019-01-14T03:27:39.725Z,98.20
2019-01-14T03:30:13.493Z,98.20
2019-01-14T03:32:44.084Z,98.10
2019-01-14T03:35:14.395Z,98.10
2019-01-14T03:37:45.452Z,98.00
2019-01-14T03:40:19.920Z,98.10
2019-01-14T03:42:50.188Z,98.60
2019-01-14T03:45:20.643Z,99.40
2019-01-14T03:47:51.403Z,99.90
2019-01-14T03:50:23.700Z,99.90
2019-01-14T03:52:53.973Z,99.80
2019-01-14T03:55:24.491Z,99.90
2019-01-14T03:57:55.420Z,99.90
2019-01-14T04:00:26.007Z,99.90
2019-01-14T04:02:56.351Z,99.80
2019-01-14T04:05:26.627Z,99.30
2019-01-14T04:07:56.892Z,99.00
2019-01-14T04:10:27.190Z,98.60
2019-01-14T04:12:57.736Z,98.90
2019-01-14T04:15:28.029Z,98.60
2019-01-14T04:17:58.764Z,98.40
2019-01-14T04:20:29.039Z,98.30
2019-01-14T04:23:01.201Z,98.50
2019-01-14T04:25:31.371Z,98.40
2019-01-14T04:28:01.883Z,98.40
2019-01-14T04:30:32.252Z,98.60
2019-01-14T04:33:02.517Z,98.50
2019-01-14T04:35:32.724Z,98.60
2019-01-14T04:38:03.012Z,98.80
2019-01-14T04:40:33.668Z,98.80
2019-01-14T04:43:03.944Z,99.00
2019-01-14T04:45:34.241Z,99.10
2019-01-14T04:48:04.573Z,99.30
2019-01-14T04:50:34.819Z,99.60
2019-01-14T04:53:05.251Z,99.90
2019-01-14T04:55:35.571Z,99.90
2019-01-14T04:58:05.952Z,99.90
2019-01-14T05:00:36.168Z,99.90
2019-01-14T05:03:07.002Z,99.90
2019-01-14T05:05:37.258Z,99.90
2019-01-14T05:08:07.509Z,99.90
2019-01-14T05:10:37.821Z,99.90
2019-01-14T05:13:08.121Z,99.90
2019-01-14T05:15:38.412Z,99.90
2019-01-14T05:18:08.731Z,99.90
2019-01-14T05:20:39.070Z,99.90
2019-01-14T05:23:09.385Z,99.90
2019-01-14T05:25:39.628Z,99.90
2019-01-14T05:28:10.155Z,99.90
2019-01-14T05:30:40.721Z,99.90
2019-01-14T05:33:11.053Z,99.90
2019-01-14T05:35:41.350Z,99.90
2019-01-14T05:38:11.587Z,99.90
2019-01-14T05:40:41.929Z,99.90
2019-01-14T05:43:12.271Z,99.90
2019-01-14T05:45:42.507Z,99.90
2019-01-14T05:48:12.911Z,99.90
2019-01-14T05:50:43.212Z,99.90
2019-01-14T05:53:13.398Z,99.90
2019-01-14T05:55:43.677Z,99.90
2019-01-14T05:58:14.308Z,99.10
2019-01-14T06:00:47.507Z,98.20
2019-01-14T06:03:17.970Z,98.00
2019-01-14T06:05:48.490Z,97.60
2019-01-14T06:08:20.369Z,97.50
2019-01-14T06:10:51.053Z,97.20
2019-01-14T06:13:21.365Z,97.70
2019-01-14T06:15:51.614Z,97.30
2019-01-14T06:18:21.903Z,98.00
2019-01-14T06:20:52.210Z,97.40
2019-01-14T06:23:22.456Z,97.80
2019-01-14T06:25:52.837Z,97.60
2019-01-14T06:28:23.192Z,97.70
2019-01-14T06:30:53.454Z,97.80
2019-01-14T06:33:24.205Z,98.50
2019-01-14T06:35:55.327Z,98.20
2019-01-14T06:38:25.600Z,98.00
2019-01-14T06:40:55.905Z,98.10
2019-01-14T06:43:26.128Z,98.40
2019-01-14T06:45:56.514Z,98.50
2019-01-14T06:48:26.992Z,98.50
2019-01-14T06:50:57.226Z,98.30
2019-01-14T06:53:27.561Z,98.20
2019-01-14T06:55:57.938Z,98.20
2019-01-14T06:58:28.197Z,98.10
2019-01-14T07:00:58.549Z,97.90
2019-01-14T07:03:28.935Z,98.00
2019-01-14T07:05:59.224Z,98.00
2019-01-14T07:08:29.492Z,97.90
2019-01-14T07:11:00.008Z,97.50
2019-01-14T07:13:30.269Z,97.60
2019-01-14T07:16:00.574Z,97.50
2019-01-14T07:18:31.281Z,97.70
2019-01-14T07:21:01.818Z,97.40
2019-01-14T07:23:32.066Z,97.70
2019-01-14T07:26:04.175Z,97.70
2019-01-14T07:28:34.446Z,97.80
2019-01-14T07:31:05.110Z,97.90
2019-01-14T07:33:35.405Z,98.30
2019-01-14T07:36:05.802Z,98.20
2019-01-14T07:38:36.333Z,98.20
2019-01-14T07:41:06.790Z,98.00
2019-01-14T07:43:37.040Z,98.10
2019-01-14T07:46:07.478Z,97.70
2019-01-14T07:48:38.355Z,97.60
2019-01-14T07:51:08.605Z,97.40
2019-01-14T07:53:38.897Z,97.80
2019-01-14T07:56:09.772Z,98.10
2019-01-14T07:58:40.342Z,98.20
2019-01-14T08:01:10.628Z,98.10
2019-01-14T08:03:40.988Z,98.50
2019-01-14T08:06:11.312Z,98.20
2019-01-14T08:08:41.610Z,97.40
2019-01-14T08:11:11.892Z,97.00
2019-01-14T08:13:42.168Z,97.10
2019-01-14T08:16:12.406Z,97.80
2019-01-14T08:18:42.983Z,98.00
2019-01-14T08:21:13.237Z,98.00
2019-01-14T08:23:43.805Z,98.20
2019-01-14T08:26:14.058Z,98.20
2019-01-14T08:28:44.358Z,97.90
2019-01-14T08:31:14.582Z,97.60
2019-01-14T08:33:45.152Z,97.90
2019-01-14T08:36:15.411Z,98.20
2019-01-14T08:38:45.658Z,98.50
2019-01-14T08:41:16.630Z,98.80
2019-01-14T08:43:47.621Z,98.70
2019-01-14T08:46:18.471Z,99.00
2019-01-14T08:48:48.980Z,98.90
2019-01-14T08:51:19.356Z,98.80
2019-01-14T08:53:50.252Z,98.40
2019-01-14T08:56:20.559Z,98.20
2019-01-14T08:58:50.851Z,98.00
2019-01-14T09:01:21.190Z,97.70
2019-01-14T09:03:51.674Z,97.50
2019-01-14T09:06:22.802Z,97.10
2019-01-14T09:08:53.371Z,96.90
2019-01-14T09:11:23.633Z,96.80
2019-01-14T09:13:54.026Z,96.80
2019-01-14T09:16:24.299Z,96.70
2019-01-14T09:18:54.568Z,96.80
2019-01-14T09:21:24.950Z,96.60
2019-01-14T09:23:55.234Z,96.50
2019-01-14T09:26:25.501Z,96.90
2019-01-14T09:28:55.788Z,97.40
2019-01-14T09:31:26.154Z,97.80
2019-01-14T09:33:57.005Z,98.80
2019-01-14T09:36:27.355Z,99.60
2019-01-14T09:38:57.647Z,99.90
2019-01-14T09:41:27.905Z,99.90
2019-01-14T09:43:58.119Z,99.90
2019-01-14T09:46:28.883Z,99.70
2019-01-14T09:48:59.177Z,99.60
2019-01-14T09:51:29.543Z,99.90
2019-01-14T09:53:59.842Z,99.90
2019-01-14T09:56:30.053Z,99.90
2019-01-14T09:59:00.767Z,99.90
2019-01-14T10:01:31.033Z,99.90
2019-01-14T10:04:01.345Z,99.90
2019-01-14T10:06:31.665Z,99.90
2019-01-14T10:09:01.990Z,99.90
2019-01-14T10:11:32.225Z,99.90
2019-01-14T10:14:02.747Z,99.80
2019-01-14T10:16:33.047Z,99.90
2019-01-14T10:19:04.989Z,99.60
2019-01-14T10:21:35.534Z,99.90
2019-01-14T10:24:06.002Z,99.70
2019-01-14T10:26:36.695Z,99.90
2019-01-14T10:29:07.098Z,99.90
2019-01-14T10:31:37.517Z,99.90
2019-01-14T10:34:07.807Z,99.90
2019-01-14T10:36:38.114Z,99.90
2019-01-14T10:39:09.428Z,99.90
2019-01-14T10:41:39.723Z,99.90
2019-01-14T10:44:10.105Z,99.90
2019-01-14T10:46:40.879Z,99.90
2019-01-14T10:49:11.602Z,99.90
2019-01-14T10:51:41.961Z,99.90
2019-01-14T10:54:12.165Z,99.90
2019-01-14T10:56:44.039Z,99.90
2019-01-14T10:59:14.590Z,99.90
2019-01-14T11:01:44.891Z,99.90
2019-01-14T11:04:15.252Z,99.90
2019-01-14T11:06:45.485Z,99.90
2019-01-14T11:09:15.775Z,99.90
2019-01-14T11:11:46.039Z,99.90
2019-01-14T11:14:16.276Z,99.70
2019-01-14T11:16:46.869Z,99.50
2019-01-14T11:19:17.141Z,99.70
2019-01-14T11:21:47.404Z,99.90
2019-01-14T11:24:17.758Z,99.90
2019-01-14T11:26:48.072Z,99.90
2019-01-14T11:29:18.333Z,99.90
2019-01-14T11:31:48.714Z,99.90
2019-01-14T11:34:19.068Z,99.90
2019-01-14T11:36:49.341Z,99.90
2019-01-14T11:39:22.094Z,99.90
2019-01-14T11:41:53.118Z,99.90
2019-01-14T11:44:23.469Z,99.90
2019-01-14T11:46:54.001Z,99.90
2019-01-14T11:49:24.265Z,99.90
2019-01-14T11:51:54.853Z,99.90
2019-01-14T11:54:26.136Z,99.90
2019-01-14T11:56:56.376Z,99.90
2019-01-14T11:59:26.706Z,99.90
2019-01-14T12:01:57.069Z,99.90
2019-01-14T12:04:27.323Z,99.90
2019-01-14T12:06:57.675Z,99.90
2019-01-14T12:09:28.046Z,99.80
2019-01-14T12:11:58.407Z,99.00
2019-01-14T12:14:28.662Z,98.90
2019-01-14T12:16:59.018Z,98.50
2019-01-14T12:19:29.323Z,98.90
2019-01-14T12:21:59.632Z,99.10
2019-01-14T12:24:29.998Z,99.60
2019-01-14T12:27:01.488Z,99.50
2019-01-14T12:29:31.820Z,98.90
2019-01-14T12:32:02.117Z,99.20
2019-01-14T12:34:32.427Z,98.90
2019-01-14T12:37:02.719Z,99.00
2019-01-14T12:39:33.017Z,98.80
2019-01-14T12:42:03.354Z,99.00
2019-01-14T12:44:33.668Z,99.30
2019-01-14T12:47:04.088Z,98.60
2019-01-14T12:49:34.727Z,98.00
2019-01-14T12:52:05.049Z,98.00
2019-01-14T12:54:35.752Z,98.60
2019-01-14T12:57:06.075Z,98.10
2019-01-14T12:59:36.296Z,97.10
2019-01-14T13:02:06.804Z,96.50
2019-01-14T13:04:37.077Z,96.70
2019-01-14T13:07:07.639Z,96.30
2019-01-14T13:09:38.596Z,96.30
2019-01-14T13:12:09.203Z,96.30
2019-01-14T13:14:39.498Z,97.10
2019-01-14T13:17:13.107Z,97.00
2019-01-14T13:19:43.372Z,96.80
2019-01-14T13:22:14.128Z,96.10
2019-01-14T13:24:44.752Z,96.00
2019-01-14T13:27:15.737Z,96.40
2019-01-14T13:29:46.118Z,96.50
2019-01-14T13:32:16.687Z,97.10
2019-01-14T13:34:47.453Z,97.00
2019-01-14T13:37:18.175Z,97.10
2019-01-14T13:39:52.520Z,96.90
2019-01-14T13:42:20.443Z,96.70
2019-01-14T13:44:50.801Z,96.20
2019-01-14T13:47:21.202Z,96.10
2019-01-14T13:49:51.464Z,96.80
2019-01-14T13:52:23.497Z,96.70
2019-01-14T13:54:53.907Z,96.80
2019-01-14T13:57:24.150Z,97.00
2019-01-14T13:59:54.398Z,97.30
2019-01-14T14:02:24.615Z,97.80
2019-01-14T14:04:54.860Z,97.70
2019-01-14T14:07:28.013Z,97.50
2019-01-14T14:09:58.526Z,97.00
2019-01-14T14:12:28.865Z,96.50
2019-01-14T14:14:59.245Z,96.50
2019-01-14T14:17:29.445Z,96.70
2019-01-14T14:20:00.029Z,97.00
2019-01-14T14:22:30.550Z,97.10
2019-01-14T14:25:00.843Z,97.10
2019-01-14T14:27:31.154Z,97.30
2019-01-14T14:30:01.747Z,97.40
2019-01-14T14:32:32.104Z,97.30
2019-01-14T14:35:02.419Z,97.30
2019-01-14T14:37:32.785Z,97.50
2019-01-14T14:40:03.060Z,97.50
2019-01-14T14:42:33.307Z,97.50
2019-01-14T14:45:03.906Z,97.50
2019-01-14T14:47:34.236Z,97.50
2019-01-14T14:50:05.643Z,97.30
2019-01-14T14:52:35.984Z,97.60
2019-01-14T14:55:07.173Z,97.40
2019-01-14T14:57:39.208Z,97.60
2019-01-14T15:00:14.354Z,97.80
2019-01-14T15:02:44.672Z,98.00
2019-01-14T15:05:15.516Z,98.10
2019-01-14T15:07:45.827Z,98.60
2019-01-14T15:10:18.538Z,98.50
2019-01-14T15:12:49.407Z,98.40
2019-01-14T15:15:21.810Z,98.50
2019-01-14T15:17:52.376Z,99.20
2019-01-14T15:20:24.575Z,98.50
2019-01-14T15:22:55.405Z,98.50
2019-01-14T15:25:25.699Z,98.30
2019-01-14T15:27:56.011Z,98.10
2019-01-14T15:30:31.386Z,97.80
2019-01-14T15:33:01.678Z,97.70
2019-01-14T15:35:32.008Z,97.40
2019-01-14T15:38:02.660Z,97.30
2019-01-14T15:40:32.999Z,97.30
2019-01-14T15:43:03.928Z,97.10
2019-01-14T15:45:34.225Z,96.70
2019-01-14T15:48:04.540Z,96.80
2019-01-14T15:50:34.905Z,96.90
2019-01-14T15:53:05.225Z,96.90
2019-01-14T15:55:36.425Z,97.40
2019-01-14T15:58:06.857Z,97.10
2019-01-14T16:00:37.181Z,97.50
2019-01-14T16:03:07.506Z,97.50
2019-01-14T16:05:37.824Z,97.60
2019-01-14T16:08:08.076Z,97.60
2019-01-14T16:10:38.390Z,97.60
2019-01-14T16:13:08.748Z,97.70
2019-01-14T16:15:39.033Z,97.80
2019-01-14T16:18:09.314Z,97.50
2019-01-14T16:20:39.676Z,97.40
2019-01-14T16:23:09.987Z,97.50
2019-01-14T16:25:40.597Z,97.40
2019-01-14T16:28:10.930Z,97.50
2019-01-14T16:30:41.249Z,97.40
2019-01-14T16:33:11.551Z,97.40
2019-01-14T16:35:41.891Z,97.50
2019-01-14T16:38:12.203Z,97.60
2019-01-14T16:40:42.511Z,97.50
2019-01-14T16:43:12.942Z,97.80
2019-01-14T16:45:43.220Z,97.90
2019-01-14T16:48:13.519Z,98.30
2019-01-14T16:50:45.013Z,98.00
2019-01-14T16:53:15.196Z,98.10
2019-01-14T16:55:47.720Z,98.10
2019-01-14T16:58:18.104Z,98.10
2019-01-14T17:00:48.493Z,98.00
2019-01-14T17:03:18.761Z,97.90
2019-01-14T17:05:49.388Z,97.70
2019-01-14T17:08:19.712Z,97.80
2019-01-14T17:10:50.065Z,97.80
2019-01-14T17:13:20.371Z,97.70
2019-01-14T17:15:50.685Z,97.70
2019-01-14T17:18:20.976Z,97.40
2019-01-14T17:20:51.354Z,97.00
2019-01-14T17:23:21.606Z,96.90
2019-01-14T17:25:51.951Z,97.10
2019-01-14T17:28:22.350Z,97.20
2019-01-14T17:30:52.668Z,97.10
2019-01-14T17:33:22.942Z,97.10
2019-01-14T17:35:53.319Z,97.10
2019-01-14T17:40:49.416Z,97.10
2019-01-14T17:41:40.520Z,97.00
2019-01-14T17:44:10.802Z,97.10
2019-01-14T17:46:41.116Z,97.00
2019-01-14T17:49:11.585Z,97.00
2019-01-14T17:51:42.467Z,97.00
2019-01-14T17:54:12.791Z,97.20
2019-01-14T17:56:43.103Z,97.20
2019-01-14T17:59:13.446Z,97.00
2019-01-14T18:01:43.700Z,97.10
2019-01-14T18:04:14.046Z,97.40
2019-01-14T18:06:44.577Z,97.60
2019-01-14T18:09:14.847Z,97.80
2019-01-14T18:11:45.258Z,98.00
2019-01-14T18:14:15.505Z,98.00
2019-01-14T18:16:45.835Z,98.10
2019-01-14T18:19:17.297Z,98.50
2019-01-14T18:21:47.520Z,98.20
2019-01-14T18:24:17.795Z,98.60
2019-01-14T18:26:48.647Z,98.70
2019-01-14T18:29:18.923Z,98.60
2019-01-14T18:31:49.629Z,98.60
2019-01-14T18:34:19.958Z,98.50
2019-01-14T18:36:50.239Z,98.50
2019-01-14T18:39:20.476Z,98.50
2019-01-14T18:41:51.072Z,99.20
2019-01-14T18:44:21.327Z,98.70
2019-01-14T18:46:51.598Z,98.80
2019-01-14T18:49:21.957Z,98.70
2019-01-14T18:51:52.546Z,98.70
2019-01-14T18:54:22.921Z,98.70
2019-01-14T18:56:53.313Z,98.70
2019-01-14T18:59:23.660Z,98.70
2019-01-14T19:01:54.146Z,99.10
2019-01-14T19:04:24.437Z,99.90
2019-01-14T19:06:54.758Z,98.80
2019-01-14T19:09:25.623Z,98.90
2019-01-14T19:11:56.170Z,99.00
2019-01-14T19:14:31.816Z,99.00
2019-01-14T19:17:07.833Z,99.40
2019-01-14T19:19:40.914Z,99.30
2019-01-14T19:22:15.833Z,99.90
2019-01-14T19:24:46.547Z,99.40
2019-01-14T19:27:18.724Z,99.30
2019-01-14T19:29:49.044Z,99.30
2019-01-14T19:32:19.407Z,99.70
2019-01-14T19:34:49.775Z,99.40
2019-01-14T19:37:20.057Z,99.40
2019-01-14T19:39:50.615Z,99.50
2019-01-14T19:42:20.910Z,99.50
2019-01-14T19:44:51.223Z,99.50
2019-01-14T19:47:21.582Z,99.50
2019-01-14T19:49:51.938Z,99.90
2019-01-14T19:52:22.236Z,99.40
2019-01-14T19:54:52.604Z,99.40
2019-01-14T19:57:23.288Z,99.10
2019-01-14T19:59:53.669Z,99.10
2019-01-14T20:02:24.215Z,98.70
2019-01-14T20:04:54.498Z,98.50
2019-01-14T20:07:24.879Z,98.40
2019-01-14T20:09:55.409Z,98.30
2019-01-14T20:12:26.399Z,98.10
2019-01-14T20:15:02.471Z,98.20
2019-01-14T20:17:32.916Z,98.10
2019-01-14T20:20:03.251Z,98.00
2019-01-14T20:22:33.597Z,98.10
2019-01-14T20:25:03.935Z,97.80
2019-01-14T20:27:34.201Z,97.70
2019-01-14T20:30:05.838Z,97.80
2019-01-14T20:32:36.139Z,97.70
2019-01-14T20:35:06.595Z,97.70
2019-01-14T20:37:36.983Z,97.50
2019-01-14T20:40:07.947Z,97.70
2019-01-14T20:42:38.223Z,97.70
2019-01-14T20:45:09.275Z,97.70
2019-01-14T20:47:39.577Z,97.70
2019-01-14T20:50:12.283Z,97.70
2019-01-14T20:52:42.670Z,97.40
2019-01-14T20:55:13.675Z,97.40
2019-01-14T20:57:43.966Z,97.10
2019-01-14T21:00:24.177Z,97.30
2019-01-14T21:02:54.680Z,97.20
2019-01-14T21:05:26.069Z,96.90
2019-01-14T21:07:56.602Z,97.00
2019-01-14T21:10:26.999Z,96.90
2019-01-14T21:12:57.317Z,97.00
2019-01-14T21:15:27.744Z,97.00
2019-01-14T21:17:58.328Z,96.90
2019-01-14T21:20:28.617Z,97.20
2019-01-14T21:22:58.958Z,96.70
2019-01-14T21:25:29.249Z,96.70
2019-01-14T21:27:59.583Z,96.70
2019-01-14T21:30:30.275Z,96.60
2019-01-14T21:33:00.882Z,96.70
2019-01-14T21:35:31.225Z,96.90
2019-01-14T21:38:01.834Z,96.80
2019-01-14T21:40:32.384Z,96.70
2019-01-14T21:43:02.641Z,96.60
2019-01-14T21:45:32.971Z,96.60
2019-01-14T21:48:03.298Z,96.40
2019-01-14T21:50:33.595Z,96.50
2019-01-14T21:53:03.957Z,96.50
2019-01-14T21:55:34.277Z,96.60
2019-01-14T21:58:04.584Z,96.30
2019-01-14T22:00:34.980Z,96.30
2019-01-14T22:03:05.294Z,96.30
2019-01-14T22:05:35.590Z,96.30
2019-01-14T22:08:05.973Z,96.20
2019-01-14T22:10:36.580Z,96.20
2019-01-14T22:13:06.929Z,96.30
2019-01-14T22:15:37.321Z,96.50
2019-01-14T22:18:07.645Z,96.40
2019-01-14T22:20:37.932Z,96.50
2019-01-14T22:23:08.296Z,96.60
2019-01-14T22:25:38.619Z,96.70
2019-01-14T22:28:08.906Z,96.80
2019-01-14T22:30:39.333Z,97.00
2019-01-14T22:33:09.663Z,97.10
2019-01-14T22:35:39.965Z,97.20
2019-01-14T22:38:10.372Z,97.30
2019-01-14T22:40:40.627Z,97.60
2019-01-14T22:43:10.906Z,97.70
2019-01-14T22:45:41.273Z,97.70
2019-01-14T22:48:11.591Z,97.80
2019-01-14T22:50:41.965Z,97.80
2019-01-14T22:53:12.265Z,97.80
2019-01-14T22:55:42.549Z,97.90
2019-01-14T22:58:12.925Z,97.90
2019-01-14T23:01:45.379Z,98.00
2019-01-14T23:04:15.681Z,97.90
2019-01-14T23:06:45.967Z,97.90
2019-01-14T23:09:16.254Z,98.30
2019-01-14T23:11:52.825Z,97.90
2019-01-14T23:14:18.605Z,98.00
2019-01-14T23:16:48.934Z,98.10
2019-01-14T23:19:19.225Z,98.20
2019-01-14T23:21:49.491Z,98.30
2019-01-14T23:24:19.786Z,98.30
2019-01-14T23:26:50.103Z,98.40
2019-01-14T23:29:20.649Z,98.40
2019-01-14T23:31:50.983Z,98.40
2019-01-14T23:34:21.327Z,98.40
2019-01-14T23:36:51.602Z,98.40
2019-01-14T23:39:22.229Z,98.50
2019-01-14T23:41:52.764Z,98.40
2019-01-14T23:44:23.048Z,98.50
2019-01-14T23:46:53.362Z,98.50
2019-01-14T23:49:23.629Z,98.90
2019-01-14T23:51:55.368Z,98.50
2019-01-14T23:54:25.684Z,98.70
2019-01-14T23:56:56.245Z,98.50
2019-01-14T23:59:26.582Z,98.30
